Time;durP1;ratioP1;P1;durP2;ratioP2;P2;SDS_P1;SDS_P2;PMS_P1;PMS_P2;Temp;Humidity;BMP_temperature;BMP_pressure;BME280_temperature;BME280_humidity;BME280_pressure;Samples;Min_cycle;Max_cycle;Signal;HPM_P1;HPM_P2
2023/03/18 00:00:10;;;;;;;8.93;1.83;;;11.20;99.90;;;10.35;100.00;100110.91;4151073;28;20428;-71
2023/03/18 00:02:12;;;;;;;12.90;2.75;;;11.20;99.90;;;10.40;100.00;100105.94;4151454;28;20026;-71
2023/03/18 00:04:13;;;;;;;12.23;2.10;;;11.10;99.90;;;10.36;100.00;100120.47;4167687;28;20029;-71
2023/03/18 00:06:17;;;;;;;9.65;2.25;;;11.10;99.90;;;10.35;100.00;100103.84;4152912;28;20076;-71
2023/03/18 00:08:18;;;;;;;12.50;1.83;;;11.10;99.90;;;10.33;100.00;100102.38;4151357;28;20040;-71
2023/03/18 00:10:19;;;;;;;9.68;2.25;;;11.10;99.90;;;10.36;100.00;100102.81;4152638;28;20018;-71
2023/03/18 00:12:20;;;;;;;14.43;2.33;;;11.00;99.90;;;10.29;100.00;100106.31;4151415;28;20026;-71
2023/03/18 00:14:22;;;;;;;13.18;2.10;;;11.10;99.90;;;10.39;100.00;100099.03;4152603;28;20050;-71
2023/03/18 00:16:23;;;;;;;11.02;1.80;;;11.10;99.90;;;10.37;100.00;100091.28;4152550;28;20033;-71
2023/03/18 00:18:24;;;;;;;13.40;2.20;;;11.10;99.90;;;10.30;100.00;100086.88;4151248;28;20093;-71
2023/03/18 00:20:37;;;;;;;11.23;2.42;;;11.10;99.90;;;10.38;100.00;100092.94;4166900;28;20030;-71
2023/03/18 00:22:40;;;;;;;10.57;1.80;;;11.10;99.90;;;10.35;100.00;100079.28;4152384;28;20105;-71
2023/03/18 00:24:41;;;;;;;13.88;2.35;;;11.10;99.90;;;10.32;100.00;100079.63;4151361;28;20041;-71
2023/03/18 00:26:42;;;;;;;14.70;3.13;;;11.10;99.90;;;10.36;100.00;100073.03;4152468;28;20030;-71
2023/03/18 00:28:43;;;;;;;15.00;2.47;;;11.10;99.90;;;10.41;100.00;100084.69;4151367;28;20037;-71
2023/03/18 00:30:45;;;;;;;12.63;2.47;;;11.10;99.90;;;10.32;100.00;100082.25;4151013;28;20022;-71
2023/03/18 00:32:46;;;;;;;17.27;2.78;;;11.10;99.90;;;10.35;100.00;100076.66;4152239;28;20110;-71
2023/03/18 00:34:48;;;;;;;15.45;2.47;;;11.10;99.90;;;10.35;100.00;100082.75;4152322;28;20052;-71
2023/03/18 00:36:55;;;;;;;13.38;2.22;;;11.10;99.90;;;10.29;100.00;100083.44;4152513;28;20481;-71
2023/03/18 00:38:58;;;;;;;19.80;3.78;;;11.10;99.90;;;10.32;100.00;100076.97;4149047;28;20025;-71
2023/03/18 00:41:12;;;;;;;16.63;2.88;;;11.10;99.90;;;10.38;100.00;100060.47;4151434;28;20104;-71
2023/03/18 00:43:13;;;;;;;23.08;4.93;;;11.10;99.90;;;10.44;100.00;100075.63;4151069;28;20106;-71
2023/03/18 00:45:16;;;;;;;22.55;3.40;;;11.20;99.90;;;10.36;100.00;100062.47;4152413;28;20058;-71
2023/03/18 00:47:17;;;;;;;22.60;3.35;;;11.20;99.90;;;10.40;100.00;100061.94;4148126;28;20053;-71
2023/03/18 00:49:18;;;;;;;22.08;3.22;;;11.20;99.90;;;10.46;100.00;100063.06;4142151;28;20018;-71
2023/03/18 00:51:23;;;;;;;15.75;2.70;;;11.20;99.90;;;10.45;100.00;100064.09;4134293;28;20034;-71
2023/03/18 00:53:25;;;;;;;21.92;4.40;;;11.20;99.90;;;10.51;100.00;100060.75;4151052;28;20061;-71
2023/03/18 00:55:26;;;;;;;30.25;4.53;;;11.20;99.90;;;10.59;100.00;100060.72;4152217;28;20033;-71
2023/03/18 00:57:28;;;;;;;21.40;3.72;;;11.30;99.90;;;10.59;100.00;100042.25;4152132;28;20053;-71
2023/03/18 00:59:29;;;;;;;28.15;3.38;;;11.30;99.90;;;10.57;100.00;100038.97;4152177;28;20038;-71
2023/03/18 01:01:31;;;;;;;23.73;4.50;;;11.30;99.90;;;10.57;100.00;100050.31;4150907;28;20030;-71
2023/03/18 01:03:32;;;;;;;19.42;3.67;;;11.30;99.90;;;10.53;100.00;100049.03;4167143;28;20513;-71
2023/03/18 01:05:34;;;;;;;23.05;3.95;;;11.30;99.90;;;10.60;100.00;100035.16;4152471;28;20032;-71
2023/03/18 01:07:35;;;;;;;28.77;4.60;;;11.30;99.90;;;10.51;100.00;100034.41;4151976;28;20504;-71
2023/03/18 01:09:39;;;;;;;33.15;4.80;;;11.30;99.90;;;10.44;100.00;100044.81;4152006;28;20019;-71
2023/03/18 01:11:40;;;;;;;23.17;5.18;;;11.20;99.90;;;10.45;100.00;100043.00;4151006;28;20029;-71
2023/03/18 01:13:41;;;;;;;28.75;4.55;;;11.20;99.90;;;10.39;100.00;100038.41;4151908;28;20022;-71
2023/03/18 01:15:42;;;;;;;29.70;4.50;;;11.20;99.90;;;10.47;100.00;100043.63;4152226;28;20029;-71
2023/03/18 01:17:44;;;;;;;23.20;4.45;;;11.20;99.90;;;10.43;100.00;100042.31;4150745;28;20057;-71
2023/03/18 01:19:47;;;;;;;27.75;5.05;;;11.10;99.90;;;10.38;100.00;100040.22;4151924;28;20049;-71
2023/03/18 01:21:48;;;;;;;32.95;4.97;;;11.10;99.90;;;10.43;100.00;100039.69;4150952;28;20086;-71
2023/03/18 01:23:50;;;;;;;33.63;4.70;;;11.10;99.90;;;10.45;100.00;100056.19;4150994;28;20029;-71
2023/03/18 01:25:51;;;;;;;24.80;4.03;;;11.10;99.90;;;10.35;100.00;100048.47;4151892;28;20040;-71
2023/03/18 01:27:53;;;;;;;28.58;4.72;;;11.10;99.90;;;10.43;100.00;100031.78;4150680;28;20038;-71
2023/03/18 01:29:54;;;;;;;29.00;5.28;;;11.10;99.90;;;10.50;100.00;100036.22;4151043;28;20057;-71
2023/03/18 01:31:55;;;;;;;25.88;4.72;;;11.10;99.90;;;10.39;100.00;100039.22;4152875;28;20045;-71
2023/03/18 01:33:56;;;;;;;34.30;5.78;;;11.10;99.90;;;10.43;100.00;100043.16;4154675;28;20017;-71
2023/03/18 01:36:01;;;;;;;32.53;6.93;;;11.10;99.90;;;10.33;100.00;100033.81;4155162;28;20038;-70
2023/03/18 01:38:04;;;;;;;32.70;5.68;;;11.10;99.90;;;10.46;100.00;100044.63;4140082;28;20027;-71
2023/03/18 01:40:07;;;;;;;26.27;4.93;;;11.10;99.90;;;10.35;100.00;100045.84;4154941;28;20504;-71
2023/03/18 01:42:08;;;;;;;35.75;6.35;;;11.10;99.90;;;10.32;100.00;100040.91;4153482;28;20042;-71
2023/03/18 01:44:18;;;;;;;35.42;6.82;;;11.10;99.90;;;10.33;100.00;100041.72;4154862;28;20516;-71
2023/03/18 01:46:42;;;;;;;25.05;5.70;;;11.10;99.90;;;10.37;100.00;100045.66;4154941;28;20056;-71
2023/03/18 01:48:43;;;;;;;29.23;4.45;;;11.10;99.90;;;10.39;100.00;100046.31;4151613;28;20041;-71
2023/03/18 01:50:50;;;;;;;30.67;5.28;;;11.10;99.90;;;10.43;100.00;100037.88;4143545;28;20033;-71
2023/03/18 01:52:59;;;;;;;25.25;3.75;;;11.10;99.90;;;10.49;100.00;100036.38;4137397;28;20023;-71
2023/03/18 01:55:18;;;;;;;21.80;4.20;;;11.10;99.90;;;10.43;100.00;100039.69;4153049;28;20034;-71
2023/03/18 01:57:21;;;;;;;29.75;4.47;;;11.10;99.90;;;10.50;100.00;100022.19;4153550;28;20026;-71
2023/03/18 01:59:26;;;;;;;24.08;3.97;;;11.10;99.90;;;10.50;100.00;100027.47;4153514;28;20110;-71
2023/03/18 02:01:36;;;;;;;23.27;4.72;;;11.20;99.90;;;10.50;100.00;100028.28;4153258;28;20037;-71
2023/03/18 02:03:41;;;;;;;20.02;4.43;;;11.10;99.90;;;10.47;100.00;100023.38;4154340;28;20042;-71
2023/03/18 02:05:43;;;;;;;27.70;4.22;;;11.20;99.90;;;10.52;100.00;100007.00;4153521;28;20042;-71
2023/03/18 02:07:45;;;;;;;24.77;4.40;;;11.20;99.90;;;10.45;100.00;100017.44;4152992;28;20056;-71
2023/03/18 02:09:48;;;;;;;17.63;4.35;;;11.20;99.90;;;10.50;100.00;100020.38;4154420;28;20036;-71
2023/03/18 02:11:50;;;;;;;23.50;4.95;;;11.20;99.90;;;10.45;100.00;100011.34;4153431;28;20030;-71
2023/03/18 02:13:52;;;;;;;18.25;3.72;;;11.20;99.90;;;10.46;100.00;100015.63;4153076;28;20047;-71
2023/03/18 02:16:00;;;;;;;18.55;3.17;;;11.20;99.90;;;10.47;100.00;100001.44;4154502;28;20038;-71
2023/03/18 02:18:40;;;;;;;21.02;3.40;;;11.20;99.90;;;10.43;100.00;100005.41;4152996;28;20156;-70
2023/03/18 02:20:58;;;;;;;23.63;4.75;;;11.10;99.90;;;10.44;100.00;99991.25;4153218;28;20038;-71
2023/03/18 02:23:30;;;;;;;13.65;2.75;;;11.10;99.90;;;10.36;100.00;100000.00;4154488;28;20030;-71
2023/03/18 02:25:43;;;;;;;22.10;3.13;;;11.10;99.90;;;10.44;100.00;99991.25;4153129;28;20452;-71
2023/03/18 02:27:49;;;;;;;16.83;3.08;;;11.10;99.90;;;10.44;100.00;99994.72;4153878;28;20152;-71
2023/03/18 02:29:57;;;;;;;19.70;2.80;;;11.10;99.90;;;10.43;100.00;100006.25;4153075;28;20101;-71
2023/03/18 02:32:03;;;;;;;21.40;3.63;;;11.10;99.90;;;10.43;100.00;100006.25;4152698;28;20026;-71
2023/03/18 02:34:10;;;;;;;16.58;3.17;;;11.10;99.90;;;10.38;100.00;100013.03;4150531;28;20069;-71
2023/03/18 02:36:27;;;;;;;21.20;3.92;;;11.10;99.90;;;10.37;100.00;100016.66;4152844;28;20497;-71
2023/03/18 02:38:28;;;;;;;20.60;3.55;;;11.10;99.90;;;10.48;100.00;100013.66;4146709;28;20038;-71
2023/03/18 02:40:37;;;;;;;14.50;3.30;;;11.10;99.90;;;10.46;100.00;100007.69;4151181;28;20026;-71
2023/03/18 02:42:38;;;;;;;22.20;4.25;;;11.10;99.90;;;10.42;100.00;100016.97;4153862;28;20030;-71
2023/03/18 02:44:43;;;;;;;28.75;5.30;;;11.10;99.90;;;10.39;100.00;100019.97;4153480;28;20026;-72
2023/03/18 02:47:10;;;;;;;30.20;3.80;;;11.10;99.90;;;10.50;100.00;100036.22;4152127;28;20033;-71
2023/03/18 02:49:12;;;;;;;25.08;4.32;;;11.10;99.90;;;10.44;100.00;100029.00;4141602;28;20057;-71
2023/03/18 02:51:16;;;;;;;27.40;5.50;;;11.10;99.90;;;10.42;100.00;100024.88;4152907;28;20056;-71
2023/03/18 02:53:17;;;;;;;32.72;4.55;;;11.10;99.90;;;10.45;100.00;100029.81;4152587;28;20026;-71
2023/03/18 02:55:18;;;;;;;31.17;5.20;;;11.10;99.90;;;10.38;100.00;100044.66;4153571;28;20493;-71
2023/03/18 02:57:18;;;;;;;21.38;3.95;;;11.10;99.90;;;10.39;100.00;100054.22;4152185;28;20153;-71
2023/03/18 02:59:21;;;;;;;24.00;4.35;;;11.10;99.90;;;10.35;100.00;100050.28;4152642;28;20029;-71
2023/03/18 03:01:23;;;;;;;20.05;3.83;;;11.00;99.90;;;10.41;100.00;100052.22;4152449;28;20472;-71
2023/03/18 03:03:25;;;;;;;18.52;3.65;;;11.00;99.90;;;10.32;100.00;100051.44;4153369;28;20036;-71
2023/03/18 03:05:27;;;;;;;27.05;3.80;;;11.00;99.90;;;10.29;100.00;100051.78;4152382;28;20033;-71
2023/03/18 03:07:27;;;;;;;17.13;3.05;;;11.00;99.90;;;10.23;100.00;100049.00;4153456;28;20037;-71
2023/03/18 03:09:29;;;;;;;22.75;3.83;;;11.00;99.90;;;10.30;100.00;100056.09;4153496;28;20052;-71
2023/03/18 03:11:31;;;;;;;25.00;3.83;;;11.00;99.90;;;10.31;100.00;100054.25;4153571;28;20017;-70
2023/03/18 03:13:32;;;;;;;27.17;4.10;;;11.00;99.90;;;10.33;100.00;100060.19;4152309;28;20029;-71
2023/03/18 03:15:33;;;;;;;30.50;4.13;;;11.00;99.90;;;10.30;100.00;100057.88;4153453;28;20028;-71
2023/03/18 03:17:34;;;;;;;22.25;3.60;;;11.00;99.90;;;10.40;100.00;100063.75;4153329;28;20033;-71
2023/03/18 03:19:35;;;;;;;29.40;4.30;;;11.10;99.90;;;10.40;100.00;100063.75;4152936;28;20079;-71
2023/03/18 03:21:36;;;;;;;32.63;4.68;;;11.10;99.90;;;10.36;100.00;100068.53;4152241;28;20029;-71
2023/03/18 03:23:38;;;;;;;39.30;5.07;;;11.10;99.90;;;10.34;100.00;100067.09;4152087;28;20029;-71
2023/03/18 03:25:39;;;;;;;25.85;5.25;;;11.10;99.90;;;10.40;100.00;100071.66;4153337;28;20034;-71
2023/03/18 03:27:40;;;;;;;25.75;4.50;;;11.10;99.90;;;10.35;100.00;100061.66;4146307;28;20062;-72
2023/03/18 03:29:42;;;;;;;28.60;4.63;;;11.20;99.90;;;10.38;100.00;100071.03;4152103;28;20390;-71
2023/03/18 03:31:43;;;;;;;25.02;5.50;;;11.10;99.90;;;10.39;100.00;100072.69;4168385;28;20049;-71
2023/03/18 03:33:44;;;;;;;29.13;5.40;;;11.10;99.90;;;10.49;100.00;100070.66;4151974;28;20040;-71
2023/03/18 03:35:45;;;;;;;27.58;5.60;;;11.20;99.90;;;10.50;100.00;100069.66;4150793;28;20477;-71
2023/03/18 03:37:46;;;;;;;24.45;4.25;;;11.20;99.90;;;10.47;100.00;100077.91;4145339;28;20093;-71
2023/03/18 03:39:47;;;;;;;23.33;6.43;;;11.20;99.90;;;10.46;100.00;100078.91;4152019;28;20034;-70
2023/03/18 03:41:48;;;;;;;27.13;5.13;;;11.20;99.90;;;10.47;100.00;100078.75;4151732;28;20583;-71
2023/03/18 03:43:49;;;;;;;26.95;4.20;;;11.30;99.90;;;10.49;100.00;100079.38;4152979;28;20029;-71
2023/03/18 03:45:50;;;;;;;16.10;3.53;;;11.20;99.90;;;10.47;100.00;100070.81;4151896;28;20048;-71
2023/03/18 03:47:51;;;;;;;25.83;4.25;;;11.20;99.90;;;10.52;100.00;100080.84;4150303;28;20049;-71
2023/03/18 03:49:52;;;;;;;13.82;3.10;;;11.30;99.90;;;10.50;100.00;100075.75;4152753;28;20060;-71
2023/03/18 03:51:53;;;;;;;22.50;3.75;;;11.20;99.90;;;10.49;100.00;100084.66;4152793;28;20033;-71
2023/03/18 03:53:54;;;;;;;20.40;3.67;;;11.30;99.90;;;10.47;100.00;100089.28;4152981;28;20022;-71
2023/03/18 03:55:55;;;;;;;22.33;3.38;;;11.30;99.90;;;10.48;100.00;100080.38;4151636;28;20080;-71
2023/03/18 03:57:56;;;;;;;16.35;2.80;;;11.20;99.90;;;10.46;100.00;100090.28;4152895;28;20057;-71
2023/03/18 03:59:57;;;;;;;16.90;2.63;;;11.20;99.90;;;10.45;100.00;100088.63;4152605;28;20022;-71
2023/03/18 04:01:58;;;;;;;18.65;2.78;;;11.20;99.90;;;10.49;100.00;100083.81;4152843;28;20032;-71
2023/03/18 04:03:59;;;;;;;17.98;3.03;;;11.30;99.90;;;10.45;100.00;100087.81;4167779;28;20033;-71
2023/03/18 04:06:00;;;;;;;18.55;3.22;;;11.30;99.90;;;10.43;100.00;100081.88;4152733;28;20481;-71
2023/03/18 04:08:01;;;;;;;18.20;2.70;;;11.20;99.90;;;10.41;100.00;100084.69;4151415;28;20033;-71
2023/03/18 04:10:03;;;;;;;21.80;3.22;;;11.20;99.90;;;10.43;100.00;100089.78;4151674;28;20391;-71
2023/03/18 04:12:04;;;;;;;16.13;2.72;;;11.20;99.90;;;10.50;100.00;100088.13;4135101;28;20450;-71
2023/03/18 04:14:05;;;;;;;16.33;2.28;;;11.20;99.90;;;10.44;100.00;100094.06;4152641;28;20042;-71
2023/03/18 04:16:06;;;;;;;15.00;2.05;;;11.20;99.90;;;10.44;100.00;100096.72;4151274;28;20046;-71
2023/03/18 04:18:07;;;;;;;17.50;3.65;;;11.20;99.90;;;10.45;100.00;100104.44;4143336;28;20030;-71
2023/03/18 04:20:09;;;;;;;17.45;2.83;;;11.30;99.90;;;10.44;100.00;100101.97;4142280;28;20029;-71
2023/03/18 04:22:10;;;;;;;14.07;2.47;;;11.30;99.90;;;10.46;100.00;100105.25;4151392;28;20029;-71
2023/03/18 04:24:11;;;;;;;13.82;2.38;;;11.20;99.90;;;10.52;100.00;100102.78;4152456;28;20036;-71
2023/03/18 04:26:12;;;;;;;14.55;2.40;;;11.20;99.90;;;10.44;100.00;100104.63;4152518;28;20482;-71
2023/03/18 04:28:13;;;;;;;14.70;2.17;;;11.20;99.90;;;10.45;100.00;100096.53;4145872;28;20519;-71
2023/03/18 04:30:14;;;;;;;12.43;2.60;;;11.20;99.90;;;10.41;100.00;100099.69;4151125;28;20018;-71
2023/03/18 04:32:16;;;;;;;8.73;2.08;;;11.20;99.90;;;10.33;100.00;100094.44;4152202;28;20397;-71
2023/03/18 04:34:17;;;;;;;10.13;2.08;;;11.10;99.90;;;10.38;100.00;100090.31;4151148;28;20026;-71
2023/03/18 04:36:17;;;;;;;14.85;1.90;;;11.10;99.90;;;10.35;100.00;100101.19;4151209;28;20474;-71
2023/03/18 04:38:19;;;;;;;13.45;3.47;;;11.10;99.90;;;10.25;100.00;100097.91;4149750;28;20081;-71
2023/03/18 04:40:20;;;;;;;13.35;1.90;;;11.10;99.90;;;10.30;100.00;100102.69;4151030;28;20030;-72
2023/03/18 04:42:21;;;;;;;10.77;2.28;;;11.00;99.90;;;10.25;100.00;100092.66;4134689;28;20062;-71
2023/03/18 04:44:24;;;;;;;16.20;3.67;;;11.10;99.90;;;10.26;100.00;100101.38;4143685;28;20030;-71
2023/03/18 04:46:28;;;;;;;8.52;1.95;;;11.00;99.90;;;10.21;100.00;100101.91;4151202;28;20076;-71
2023/03/18 04:48:29;;;;;;;9.88;1.75;;;11.00;99.90;;;10.21;100.00;100115.09;4151928;28;20030;-71
2023/03/18 04:50:30;;;;;;;17.05;2.38;;;11.00;99.90;;;10.21;100.00;100109.81;4152329;28;20033;-71
2023/03/18 04:52:32;;;;;;;20.17;2.10;;;11.00;99.90;;;10.20;100.00;100109.97;4150692;28;20022;-71
2023/03/18 04:54:33;;;;;;;12.50;1.88;;;11.00;99.90;;;10.22;100.00;100115.88;4152154;28;20057;-71
2023/03/18 04:56:34;;;;;;;11.60;2.50;;;11.00;99.90;;;10.22;100.00;100118.53;4152178;28;20036;-71
2023/03/18 04:58:35;;;;;;;11.32;1.77;;;11.00;99.90;;;10.21;100.00;100114.25;4152138;28;20512;-71
2023/03/18 05:00:36;;;;;;;8.88;1.70;;;11.00;99.90;;;10.20;100.00;100120.50;4167180;28;20029;-71
2023/03/18 05:02:38;;;;;;;13.45;2.42;;;11.00;99.90;;;10.20;100.00;100109.97;4152126;28;20029;-71
2023/03/18 05:04:39;;;;;;;15.13;2.67;;;11.00;99.90;;;10.22;100.00;100115.88;4150640;28;20045;-71
2023/03/18 05:06:40;;;;;;;11.48;2.25;;;11.00;99.90;;;10.21;100.00;100111.63;4151865;28;20026;-71
2023/03/18 05:08:41;;;;;;;14.55;3.13;;;11.00;99.90;;;10.19;100.00;100108.31;4144655;28;20026;-71
2023/03/18 05:10:42;;;;;;;15.20;3.42;;;11.00;99.90;;;10.17;100.00;100115.56;4148714;28;20045;-71
2023/03/18 05:12:43;;;;;;;13.40;2.88;;;11.00;99.90;;;10.21;100.00;100117.72;4154300;28;20452;-71
2023/03/18 05:14:44;;;;;;;18.85;2.78;;;10.90;99.90;;;10.15;100.00;100105.22;4155088;28;20046;-71
2023/03/18 05:16:45;;;;;;;12.70;2.70;;;11.00;99.90;;;10.16;100.00;100109.47;4154121;28;20113;-71
2023/03/18 05:18:47;;;;;;;15.40;2.60;;;11.00;99.90;;;10.15;100.00;100113.13;4146954;28;20076;-71
2023/03/18 05:20:48;;;;;;;11.90;2.95;;;10.90;99.90;;;10.18;100.00;100112.78;4155618;28;20045;-71
2023/03/18 05:22:48;;;;;;;17.40;2.70;;;10.90;99.90;;;10.16;100.00;100111.28;4154026;28;20433;-71
2023/03/18 05:24:50;;;;;;;21.02;3.50;;;10.90;99.90;;;10.18;100.00;100115.41;4170279;28;20033;-71
2023/03/18 05:26:51;;;;;;;17.30;3.13;;;11.00;99.90;;;10.15;100.00;100121.03;4154597;28;20026;-71
2023/03/18 05:28:52;;;;;;;13.70;3.03;;;10.90;99.90;;;10.11;100.00;100110.94;4151309;28;20037;-71
2023/03/18 05:30:53;;;;;;;8.38;2.58;;;10.90;99.90;;;10.12;100.00;100115.25;4153826;28;20062;-71
2023/03/18 05:32:54;;;;;;;15.32;2.38;;;10.90;99.90;;;10.13;100.00;100122.13;4154942;28;20041;-71
2023/03/18 05:34:55;;;;;;;12.98;2.00;;;10.90;99.90;;;10.07;100.00;100120.16;4153546;28;20521;-71
2023/03/18 05:36:56;;;;;;;8.85;2.25;;;10.90;99.90;;;10.08;100.00;100121.81;4154830;28;20036;-71
2023/03/18 05:38:57;;;;;;;8.18;1.77;;;10.80;99.90;;;10.05;100.00;100112.44;4154908;28;20414;-71
2023/03/18 05:40:58;;;;;;;8.25;1.40;;;10.90;99.90;;;10.06;100.00;100111.47;4153727;28;20030;-71
2023/03/18 05:42:59;;;;;;;6.55;1.67;;;10.80;99.90;;;10.01;100.00;100114.59;4154928;28;20397;-71
2023/03/18 05:45:01;;;;;;;7.22;1.02;;;10.80;99.90;;;10.06;100.00;100123.81;4153505;28;20072;-71
2023/03/18 05:47:02;;;;;;;9.23;1.35;;;10.90;99.90;;;10.19;100.00;100114.41;4169342;28;20030;-71
2023/03/18 05:49:02;;;;;;;13.55;1.80;;;10.90;99.90;;;10.12;100.00;100126.59;4154571;28;20053;-71
2023/03/18 05:51:04;;;;;;;12.45;2.20;;;10.80;99.90;;;10.08;100.00;100120.00;4155118;28;20026;-71
2023/03/18 05:53:06;;;;;;;5.95;1.33;;;10.90;99.90;;;10.14;100.00;100127.28;4154781;28;20113;-71
2023/03/18 05:55:11;;;;;;;6.13;1.55;;;10.90;99.90;;;10.11;100.00;100113.59;4154673;28;20022;-71
2023/03/18 05:57:14;;;;;;;6.82;1.65;;;10.90;99.90;;;10.15;100.00;100128.09;4153786;28;20064;-71
2023/03/18 05:59:14;;;;;;;8.18;1.52;;;10.90;99.90;;;10.18;100.00;100125.13;4154589;28;20034;-71
2023/03/18 06:01:15;;;;;;;8.43;1.42;;;11.00;99.90;;;10.18;100.00;100118.06;4154479;28;20446;-71
2023/03/18 06:03:17;;;;;;;6.80;1.27;;;11.00;99.90;;;10.22;100.00;100135.16;4153887;28;20022;-71
2023/03/18 06:05:18;;;;;;;8.32;1.35;;;11.00;99.90;;;10.22;100.00;100123.78;4154444;28;20052;-71
2023/03/18 06:07:19;;;;;;;11.35;2.15;;;11.00;99.90;;;10.27;100.00;100135.50;4136836;28;20026;-71
2023/03/18 06:09:21;;;;;;;11.65;2.42;;;11.10;99.90;;;10.31;100.00;100133.31;4153483;28;20084;-71
2023/03/18 06:11:23;;;;;;;9.20;2.13;;;11.10;99.90;;;10.29;100.00;100130.03;4152823;28;20389;-71
2023/03/18 06:13:24;;;;;;;6.05;1.25;;;11.10;99.90;;;10.35;100.00;100134.63;4154487;28;20029;-73
2023/03/18 06:15:25;;;;;;;12.40;2.13;;;11.10;99.90;;;10.33;100.00;100141.91;4154371;28;20378;-71
2023/03/18 06:17:26;;;;;;;10.27;1.80;;;11.10;99.90;;;10.37;100.00;100143.19;4154070;28;20033;-71
2023/03/18 06:19:30;;;;;;;20.50;3.15;;;11.10;99.90;;;10.36;100.00;100137.09;4152045;28;20073;-71
2023/03/18 06:21:31;;;;;;;11.45;1.90;;;11.20;99.90;;;10.39;100.00;100146.50;4154435;28;20026;-71
2023/03/18 06:23:32;;;;;;;10.48;1.70;;;11.20;99.90;;;10.39;100.00;100141.22;4154225;28;20053;-71
2023/03/18 06:25:33;;;;;;;9.68;1.95;;;11.20;99.90;;;10.41;100.00;100147.16;4152985;28;20041;-71
2023/03/18 06:27:35;;;;;;;11.13;1.58;;;11.20;99.90;;;10.37;100.00;100145.81;4152642;28;20028;-71
2023/03/18 06:29:36;;;;;;;9.85;1.50;;;11.20;99.90;;;10.35;100.00;100148.66;4158070;28;20040;-71
2023/03/18 06:31:37;;;;;;;6.45;1.63;;;11.20;99.90;;;10.32;100.00;100154.25;4153996;28;20397;-71
2023/03/18 06:33:39;;;;;;;4.45;0.82;;;11.20;99.90;;;10.34;100.00;100148.81;4153766;28;20026;-71
2023/03/18 06:35:40;;;;;;;7.47;1.65;;;11.20;99.90;;;10.34;100.00;100157.53;4152729;28;20034;-71
2023/03/18 06:37:41;;;;;;;4.78;1.10;;;11.20;99.90;;;10.33;100.00;100163.00;4153995;28;20034;-71
2023/03/18 06:39:43;;;;;;;5.50;0.93;;;11.10;99.90;;;10.35;100.00;100169.75;4152796;28;20026;-71
2023/03/18 06:41:45;;;;;;;5.05;1.90;;;11.10;99.90;;;10.32;100.00;100166.63;4152587;28;20026;-71
2023/03/18 06:43:49;;;;;;;9.77;1.45;;;11.10;99.90;;;10.31;100.00;100163.16;4168987;28;20083;-71
2023/03/18 06:45:50;;;;;;;;;;;11.10;99.90;;;10.32;100.00;100182.44;4169470;28;20490;-71
2023/03/18 06:47:50;;;;;;;4.88;1.33;;;11.10;99.90;;;10.35;100.00;100182.09;4146398;28;19914;-71
2023/03/18 06:49:51;;;;;;;6.78;1.27;;;11.10;99.90;;;10.37;100.00;100183.56;4149044;28;20176;-71
2023/03/18 06:51:53;;;;;;;7.43;1.02;;;11.20;99.90;;;10.38;100.00;100192.31;4152443;28;20026;-71
2023/03/18 06:53:54;;;;;;;4.25;0.98;;;11.20;99.90;;;10.38;100.00;100192.31;4152505;28;20068;-71
2023/03/18 06:55:55;;;;;;;9.95;1.48;;;11.20;99.90;;;10.44;100.00;100199.53;4152430;28;20022;-71
2023/03/18 06:57:57;;;;;;;11.35;1.50;;;11.20;99.90;;;10.43;100.00;100203.16;4150832;28;20048;-71
2023/03/18 06:59:58;;;;;;;9.52;1.50;;;11.20;99.90;;;10.39;100.00;100196.59;4152356;28;20034;-71
2023/03/18 07:01:59;;;;;;;2.92;0.90;;;11.20;99.90;;;10.39;100.00;100199.22;4152295;28;20033;-71
2023/03/18 07:04:01;;;;;;;6.30;1.27;;;11.20;99.90;;;10.38;100.00;100198.41;4151482;28;20112;-70
2023/03/18 07:06:03;;;;;;;9.38;1.15;;;11.10;99.90;;;10.35;100.00;100200.56;4153563;28;20448;-71
2023/03/18 07:08:04;;;;;;;10.20;1.80;;;11.20;99.90;;;10.34;100.00;100204.16;4152027;28;20060;-71
2023/03/18 07:10:21;;;;;;;7.18;1.35;;;11.10;99.90;;;10.33;100.00;100207.81;4153564;28;20076;-71
2023/03/18 07:12:22;;;;;;;7.82;0.80;;;11.10;99.90;;;10.28;100.00;100216.22;4152498;28;20125;-71
2023/03/18 07:14:23;;;;;;;10.75;1.08;;;11.10;99.90;;;10.23;100.00;100215.06;4152359;28;20193;-71
2023/03/18 07:16:24;;;;;;;6.72;1.30;;;11.00;99.90;;;10.25;100.00;100218.34;4168626;28;20045;-71
2023/03/18 07:18:26;;;;;;;8.80;1.60;;;11.00;99.90;;;10.24;100.00;100222.81;4153129;28;20531;-71
2023/03/18 07:20:28;;;;;;;7.60;1.55;;;11.00;99.90;;;10.21;100.00;100220.50;4153477;28;20026;-71
2023/03/18 07:22:29;;;;;;;5.35;0.90;;;11.00;99.90;;;10.19;100.00;100211.94;4153424;28;20033;-71
2023/03/18 07:24:30;;;;;;;7.03;0.85;;;11.00;99.90;;;10.24;100.00;100225.47;4153291;28;20057;-71
2023/03/18 07:26:31;;;;;;;7.82;1.27;;;11.00;99.90;;;10.27;100.00;100219.03;4153251;28;20034;-71
2023/03/18 07:28:32;;;;;;;5.57;0.98;;;11.00;99.90;;;10.25;100.00;100202.53;4153201;28;20026;-71
2023/03/18 07:30:33;;;;;;;7.70;1.48;;;11.00;99.90;;;10.30;100.00;100205.50;4151842;28;20034;-71
2023/03/18 07:32:36;;;;;;;3.38;0.93;;;11.00;99.90;;;10.30;100.00;100206.34;4152919;28;20114;-70
2023/03/18 07:34:37;;;;;;;3.22;0.82;;;11.10;99.90;;;10.40;100.00;100212.22;4151727;28;20033;-71
2023/03/18 07:36:38;;;;;;;6.50;0.82;;;11.10;99.90;;;10.42;100.00;100209.44;4153041;28;20119;-71
2023/03/18 07:38:39;;;;;;;5.53;1.08;;;11.10;99.90;;;10.41;100.00;100205.16;4153049;28;20045;-70
2023/03/18 07:40:40;;;;;;;4.80;1.40;;;11.20;99.90;;;10.46;100.00;100210.75;4151946;28;20417;-71
2023/03/18 07:42:41;;;;;;;10.95;2.00;;;11.20;99.90;;;10.51;100.00;100205.81;4152548;28;20096;-71
2023/03/18 07:44:42;;;;;;;13.43;7.93;;;11.30;99.90;;;10.62;100.00;100207.25;4153014;28;20517;-71
2023/03/18 07:46:44;;;;;;;8.63;2.72;;;11.30;99.90;;;10.77;100.00;100214.28;4151679;28;20038;-71
2023/03/18 07:48:45;;;;;;;5.18;1.83;;;11.50;99.90;;;10.87;100.00;100214.09;4135914;28;20026;-70
2023/03/18 07:50:46;;;;;;;9.50;3.83;;;11.60;99.90;;;11.00;100.00;100217.81;4142176;28;20028;-71
2023/03/18 07:52:47;;;;;;;16.73;6.53;;;11.70;99.90;;;11.11;100.00;100220.06;4153087;28;20026;-70
2023/03/18 07:54:48;;;;;;;10.65;3.35;;;11.80;99.90;;;11.18;100.00;100222.84;4151587;28;20022;-70
2023/03/18 07:56:50;;;;;;;15.93;8.13;;;11.90;99.90;;;11.30;100.00;100221.47;4166622;28;20022;-71
2023/03/18 07:58:51;;;;;;;37.88;14.60;;;12.00;99.90;;;11.30;100.00;100225.94;4151637;28;20030;-71
2023/03/18 08:00:53;;;;;;;11.15;3.47;;;12.00;99.90;;;11.33;100.00;100225.59;4167842;28;20059;-71
2023/03/18 08:02:54;;;;;;;7.82;1.25;;;12.10;99.90;;;11.32;100.00;100222.13;4151353;28;20034;-71
2023/03/18 08:04:55;;;;;;;7.07;1.48;;;12.20;99.90;;;11.35;100.00;100228.91;4149974;28;20026;-70
2023/03/18 08:06:57;;;;;;;10.85;2.17;;;12.20;99.90;;;11.44;100.00;100233.13;4151418;28;20557;-70
2023/03/18 08:08:58;;;;;;;5.35;1.50;;;12.20;99.90;;;11.45;100.00;100232.94;4152567;28;20037;-71
2023/03/18 08:11:01;;;;;;;26.67;10.07;;;12.30;99.90;;;11.44;100.00;100228.66;4152981;28;20527;-71
2023/03/18 08:13:02;;;;;;;13.68;3.70;;;12.20;99.90;;;11.36;100.00;100231.34;4151400;28;20029;-71
2023/03/18 08:15:06;;;;;;;8.05;2.13;;;12.20;99.90;;;11.36;100.00;100230.53;4151170;28;20061;-71
2023/03/18 08:17:07;;;;;;;17.73;7.75;;;12.20;99.90;;;11.39;100.00;100238.09;4152608;28;20078;-71
2023/03/18 08:19:08;;;;;;;19.65;7.32;;;12.20;99.90;;;11.47;100.00;100245.97;4152260;28;20022;-71
2023/03/18 08:21:09;;;;;;;15.52;5.45;;;12.30;99.90;;;11.49;100.00;100246.63;4152153;28;20037;-74